Mountain Home Air Force Base
KMUO : now visible

Airfield :











YOU CAN JOIN US ON...

 
LOGIN :

Register | Disclaimer

   EN    FR    IT 

 









Legend :    VFR   Marginal VFR   IFR   Intensive IFR   Very Intensive IFR
Visi :
Ceiling :
>= 8 km
>= 3000ft
5 to 8 km
1000 to 3000 ft
1500m to 5 km
500 to 1000 ft
800 to 1500m
200 to 500 ft
< 800m
< 200 ft
Symbols :   Thunderstorms  Fog  Heavy snow  Heavy precipitations  Wind > 20 kt






- Airport Elevation : 2996 ft


KMUO - Mountain Home Air Force Base

CURRENT METAR :
  • 280555Z 08005KT 9SM BKN060 OVC100 01/M04 A3012 RMK SLP214 T00061041 10031 20000 53005 $

EXPIRED METARs :
  • 280455Z 13006KT 9SM OVC060 00/M04 A3012 RMK SLP218 T00041042 $
  • 280355Z 16004KT 9SM OVC060 01/M05 A3011 RMK SLP215 T00061048 $
  • 280255Z 00000KT 9SM FEW049 OVC065 01/M04 A3011 RMK SLP217 T00051045 52009 $
  • 280155Z 00000KT 9SM OVC065 01/M05 A3010 RMK SLP213 T00141053 $

TAF TAF KMUO
Valid from the 28 at 02:00 until the 29 at 08:00 UTC


280200Z 2802/2908 VRB06KT 9999 SCT030 BKN050 620505 QNH3009INS
BECMG 2809/2810 10009KT 9999 SCT050 QNH3012INS
TEMPO 2810/2812 10012G20KT BKN050
BECMG 2811/2812 12015G25KT 9999 FEW050 SCT080 QNH2992INS
BECMG 2907/2908 12015G25KT 9999 VCSH BKN070 BKN100 610709 QNH2990INS TX11/2823Z TNM03/2813Z
KZLC FIR / North America



MET'MAP, your aeronautical weather chart ! - Copyright ORBIFLY December 2007 - Disclaimer

ORBIFLY MET'MAP TEAM :

Programming & Development : Alexandra Zaïnal
Original concept : Baudouin d'Aumeries
Technical & hardware support : Manuel Goepfert
Assistance : Marc-Olivier Méhu




SOURCES & CREDITS :

   NOAA       Earth
Advisory